createdAt,value
2022-09-20T00:01:09.692Z,12.51
2022-09-20T00:03:38.151Z,12.47
2022-09-20T00:06:07.237Z,12.41
2022-09-20T00:08:34.519Z,12.48
2022-09-20T00:11:10.706Z,12.47
2022-09-20T00:13:38.536Z,12.51
2022-09-20T00:16:07.628Z,12.53
2022-09-20T00:18:34.319Z,12.55
2022-09-20T00:21:00.933Z,12.44
2022-09-20T00:23:27.409Z,12.51
2022-09-20T00:26:04.211Z,12.49
2022-09-20T00:28:32.180Z,12.39
2022-09-20T00:30:58.716Z,12.30
2022-09-20T00:33:45.812Z,12.41
2022-09-20T00:36:12.588Z,12.46
2022-09-20T00:38:39.071Z,12.37
2022-09-20T00:41:05.869Z,12.32
2022-09-20T00:43:50.728Z,12.45
2022-09-20T00:46:39.916Z,12.31
2022-09-20T00:49:14.566Z,12.43
2022-09-20T00:51:45.554Z,12.39
2022-09-20T00:54:19.526Z,12.26
2022-09-20T00:56:46.983Z,12.24
2022-09-20T00:59:18.591Z,12.21
2022-09-20T01:01:48.396Z,12.19
2022-09-20T01:04:16.595Z,12.25
2022-09-20T01:06:45.961Z,12.15
2022-09-20T01:09:12.421Z,12.16
2022-09-20T01:11:40.487Z,12.12
2022-09-20T01:14:07.028Z,12.15
2022-09-20T01:16:35.839Z,12.15
2022-09-20T01:19:10.111Z,12.25
2022-09-20T01:21:37.283Z,12.29
2022-09-20T01:24:28.435Z,12.28
2022-09-20T01:27:26.223Z,12.35
2022-09-20T01:30:12.336Z,12.30
2022-09-20T01:33:16.440Z,12.31
2022-09-20T01:35:46.555Z,12.30
2022-09-20T01:38:55.928Z,12.25
2022-09-20T01:41:31.160Z,12.18
2022-09-20T01:44:09.602Z,12.16
2022-09-20T01:46:37.800Z,12.13
2022-09-20T01:49:29.034Z,12.08
2022-09-20T01:52:21.006Z,12.08
2022-09-20T01:55:04.480Z,12.09
2022-09-20T01:57:58.459Z,12.06
2022-09-20T02:00:34.937Z,12.03
2022-09-20T02:03:33.427Z,12.14
2022-09-20T02:06:20.635Z,12.12
2022-09-20T02:09:24.871Z,12.16
2022-09-20T02:12:13.704Z,12.09
2022-09-20T02:15:14.956Z,12.16
2022-09-20T02:17:50.352Z,12.05
2022-09-20T02:20:25.815Z,12.02
2022-09-20T02:22:52.231Z,11.98
2022-09-20T02:25:19.006Z,12.00
2022-09-20T02:28:07.251Z,11.96
2022-09-20T02:31:01.309Z,12.02
2022-09-20T02:34:17.836Z,12.06
2022-09-20T02:37:05.646Z,12.00
2022-09-20T02:39:36.736Z,11.94
2022-09-20T02:42:17.297Z,12.03
2022-09-20T02:44:53.340Z,11.94
2022-09-20T02:47:34.059Z,11.93
2022-09-20T02:50:28.603Z,11.93
2022-09-20T02:53:32.432Z,11.98
2022-09-20T02:56:33.843Z,11.93
2022-09-20T02:59:12.373Z,11.93
2022-09-20T03:01:54.988Z,11.86
2022-09-20T03:04:34.162Z,11.84
2022-09-20T03:07:24.945Z,11.87
2022-09-20T03:10:07.224Z,11.88
2022-09-20T03:12:46.176Z,11.89
2022-09-20T03:15:33.975Z,11.90
2022-09-20T03:18:09.696Z,11.97
2022-09-20T03:20:52.087Z,11.94
2022-09-20T03:23:45.849Z,12.04
2022-09-20T03:26:43.335Z,12.03
2022-09-20T03:29:37.905Z,12.03
2022-09-20T03:32:16.502Z,11.90
2022-09-20T03:34:45.847Z,11.89
2022-09-20T03:37:27.555Z,11.93
2022-09-20T03:40:28.318Z,11.91
2022-09-20T03:43:04.411Z,11.86
2022-09-20T03:45:36.822Z,11.91
2022-09-20T03:48:30.148Z,11.91
2022-09-20T03:51:24.598Z,11.86
2022-09-20T03:54:26.470Z,11.83
2022-09-20T03:57:06.275Z,11.83
2022-09-20T04:00:23.859Z,11.86
2022-09-20T04:03:24.520Z,11.87
2022-09-20T04:06:02.436Z,11.83
2022-09-20T04:08:40.472Z,11.83
2022-09-20T04:11:19.190Z,11.82
2022-09-20T04:13:57.877Z,11.79
2022-09-20T04:16:27.217Z,11.80
2022-09-20T04:19:01.671Z,11.78
2022-09-20T04:21:48.426Z,11.81
2022-09-20T04:24:25.508Z,11.80
2022-09-20T04:26:59.395Z,11.77
2022-09-20T04:29:36.027Z,11.83
2022-09-20T04:32:07.264Z,11.87
2022-09-20T04:35:04.904Z,11.86
2022-09-20T04:37:38.377Z,11.83
2022-09-20T04:40:33.034Z,11.86
2022-09-20T04:43:08.290Z,11.82
2022-09-20T04:46:06.380Z,11.90
2022-09-20T04:48:51.209Z,11.87
2022-09-20T04:51:51.120Z,11.92
2022-09-20T04:54:47.087Z,11.95
2022-09-20T04:57:41.573Z,11.93
2022-09-20T05:00:20.367Z,11.91
2022-09-20T05:03:25.286Z,11.92
2022-09-20T05:06:19.598Z,11.81
2022-09-20T05:08:56.608Z,11.80
2022-09-20T05:12:03.639Z,11.86
2022-09-20T05:14:53.467Z,11.80
2022-09-20T05:17:52.543Z,11.78
2022-09-20T05:20:43.667Z,11.73
2022-09-20T05:23:25.725Z,11.72
2022-09-20T05:26:09.420Z,11.68
2022-09-20T05:28:41.636Z,11.66
2022-09-20T05:31:30.336Z,11.68
2022-09-20T05:34:24.602Z,11.67
2022-09-20T05:37:16.674Z,11.66
2022-09-20T05:39:49.343Z,11.82
2022-09-20T05:42:20.901Z,11.63
2022-09-20T05:45:07.596Z,11.65
2022-09-20T05:48:04.982Z,11.63
2022-09-20T05:50:44.428Z,11.61
2022-09-20T05:53:48.255Z,11.61
2022-09-20T05:56:42.764Z,11.58
2022-09-20T05:59:47.604Z,11.61
2022-09-20T06:02:24.060Z,11.60
2022-09-20T06:05:29.309Z,11.65
2022-09-20T06:08:03.703Z,11.66
2022-09-20T06:10:54.801Z,11.68
2022-09-20T06:14:03.717Z,11.67
2022-09-20T06:16:51.649Z,11.65
2022-09-20T06:19:40.907Z,11.68
2022-09-20T06:22:23.402Z,11.65
2022-09-20T06:25:03.177Z,11.66
2022-09-20T06:28:15.880Z,11.71
2022-09-20T06:30:48.858Z,11.68
2022-09-20T06:33:22.505Z,11.66
2022-09-20T06:36:29.688Z,11.67
2022-09-20T06:39:27.725Z,11.66
2022-09-20T06:41:54.596Z,11.68
2022-09-20T06:44:21.060Z,11.69
2022-09-20T06:46:47.608Z,11.69
2022-09-20T06:49:14.052Z,11.69
2022-09-20T06:51:41.087Z,11.69
2022-09-20T06:54:14.128Z,11.72
2022-09-20T06:56:40.589Z,11.69
2022-09-20T06:59:11.369Z,11.74
2022-09-20T07:01:38.283Z,11.75
2022-09-20T07:04:06.172Z,11.76
2022-09-20T07:06:33.611Z,11.80
2022-09-20T07:09:00.063Z,11.86
2022-09-20T07:11:26.556Z,11.90
2022-09-20T07:13:55.504Z,11.99
2022-09-20T07:16:22.051Z,12.00
2022-09-20T07:18:49.141Z,12.04
2022-09-20T07:21:17.940Z,12.03
2022-09-20T07:23:45.760Z,12.07
2022-09-20T07:26:18.559Z,12.14
2022-09-20T07:28:45.299Z,12.15
2022-09-20T07:31:12.227Z,12.17
2022-09-20T07:33:38.691Z,12.18
2022-09-20T07:36:05.258Z,12.18
2022-09-20T07:38:31.712Z,12.22
2022-09-20T07:41:00.804Z,12.23
2022-09-20T07:43:28.654Z,12.24
2022-09-20T07:45:56.169Z,12.30
2022-09-20T07:48:25.827Z,12.33
2022-09-20T07:50:54.970Z,12.37
2022-09-20T07:53:21.806Z,12.43
2022-09-20T07:56:06.855Z,12.50
2022-09-20T07:58:35.341Z,12.54
2022-09-20T08:01:07.378Z,12.56
2022-09-20T08:03:34.937Z,12.61
2022-09-20T08:06:09.932Z,12.62
2022-09-20T08:08:38.424Z,12.68
2022-09-20T08:11:10.118Z,12.74
2022-09-20T08:16:24.724Z,12.80
2022-09-20T08:18:57.539Z,12.84
2022-09-20T08:21:25.428Z,12.89
2022-09-20T08:23:52.600Z,12.93
2022-09-20T08:26:22.561Z,12.97
2022-09-20T08:28:53.006Z,13.06
2022-09-20T08:31:21.157Z,13.10
2022-09-20T08:33:50.250Z,13.16
2022-09-20T08:36:19.120Z,13.17
2022-09-20T08:41:32.490Z,13.29
2022-09-20T08:44:35.683Z,13.40
2022-09-20T08:47:23.547Z,13.36
2022-09-20T08:49:56.964Z,13.47
2022-09-20T08:52:36.779Z,13.57
2022-09-20T08:55:16.576Z,13.59
2022-09-20T08:57:44.367Z,13.62
2022-09-20T09:00:17.549Z,13.66
2022-09-20T09:02:44.516Z,13.75
2022-09-20T09:05:31.430Z,13.87
2022-09-20T09:08:04.716Z,13.90
2022-09-20T09:10:42.661Z,13.90
2022-09-20T09:13:25.348Z,13.92
2022-09-20T09:15:57.982Z,13.93
2022-09-20T09:18:37.438Z,13.95
2022-09-20T09:21:05.867Z,13.93
2022-09-20T09:23:43.485Z,13.94
2022-09-20T09:26:17.678Z,13.94
2022-09-20T09:28:44.184Z,14.04
2022-09-20T09:31:23.338Z,14.04
2022-09-20T09:33:49.905Z,14.06
2022-09-20T09:36:22.574Z,14.07
2022-09-20T09:38:49.855Z,14.11
2022-09-20T09:41:29.728Z,14.10
2022-09-20T09:44:06.517Z,14.10
2022-09-20T09:46:34.659Z,14.08
2022-09-20T09:49:13.425Z,14.10
2022-09-20T09:51:42.990Z,14.08
2022-09-20T09:54:17.676Z,14.14
2022-09-20T09:56:57.275Z,14.14
2022-09-20T09:59:26.312Z,14.17
2022-09-20T10:02:27.331Z,14.21
2022-09-20T10:05:21.048Z,14.25
2022-09-20T10:08:10.971Z,14.28
2022-09-20T10:11:01.096Z,14.36
2022-09-20T10:14:05.505Z,14.43
2022-09-20T10:16:49.003Z,14.54
2022-09-20T10:19:53.079Z,14.57
2022-09-20T10:23:30.111Z,14.60
2022-09-20T10:26:07.945Z,14.62
2022-09-20T10:28:57.725Z,14.68
2022-09-20T10:31:40.595Z,14.76
2022-09-20T10:34:15.823Z,14.86
2022-09-20T10:36:51.877Z,14.93
2022-09-20T10:39:24.452Z,14.94
2022-09-20T10:42:42.531Z,14.98
2022-09-20T10:45:42.067Z,14.99
2022-09-20T10:48:18.344Z,14.99
2022-09-20T10:50:48.611Z,15.02
2022-09-20T10:53:48.850Z,15.06
2022-09-20T10:56:40.001Z,15.15
2022-09-20T10:59:34.414Z,15.19
2022-09-20T11:02:36.506Z,15.17
2022-09-20T11:05:21.323Z,15.31
2022-09-20T11:07:56.010Z,15.26
2022-09-20T11:10:25.371Z,15.36
2022-09-20T11:13:00.061Z,15.36
2022-09-20T11:15:51.070Z,15.36
2022-09-20T11:18:28.163Z,15.41
2022-09-20T11:21:13.918Z,15.45
2022-09-20T11:23:40.312Z,15.56
2022-09-20T11:26:46.023Z,15.60
2022-09-20T11:29:26.062Z,15.60
2022-09-20T11:31:55.622Z,15.55
2022-09-20T11:34:29.928Z,15.50
2022-09-20T11:37:03.022Z,15.39
2022-09-20T11:39:48.931Z,15.38
2022-09-20T11:42:20.223Z,15.32
2022-09-20T11:44:47.264Z,15.33
2022-09-20T11:47:49.833Z,15.29
2022-09-20T11:50:46.502Z,15.19
2022-09-20T11:53:27.897Z,15.15
2022-09-20T11:56:10.447Z,15.10
2022-09-20T11:58:49.170Z,15.08
2022-09-20T12:01:28.484Z,15.04
2022-09-20T12:04:20.657Z,15.13
2022-09-20T12:06:47.539Z,15.19
2022-09-20T12:09:32.316Z,15.23
2022-09-20T12:12:00.396Z,15.28
2022-09-20T12:14:29.016Z,15.19
2022-09-20T12:16:56.888Z,15.33
2022-09-20T12:19:32.751Z,15.33
2022-09-20T12:21:59.408Z,15.36
2022-09-20T12:24:32.256Z,15.36
2022-09-20T12:27:03.111Z,15.37
2022-09-20T12:29:31.168Z,15.36
2022-09-20T12:32:01.412Z,15.43
2022-09-20T12:34:34.655Z,15.57
2022-09-20T12:37:01.139Z,15.61
2022-09-20T12:39:30.176Z,15.90
2022-09-20T12:42:21.474Z,16.00
2022-09-20T12:44:50.832Z,16.14
2022-09-20T12:47:22.103Z,16.18
2022-09-20T12:50:07.336Z,16.25
2022-09-20T12:52:58.527Z,16.38
2022-09-20T12:55:46.596Z,16.39
2022-09-20T12:58:16.043Z,16.53
2022-09-20T13:00:59.201Z,16.85
2022-09-20T13:03:36.075Z,16.88
2022-09-20T13:06:10.684Z,16.73
2022-09-20T13:08:49.123Z,16.76
2022-09-20T13:11:20.068Z,16.73
2022-09-20T13:13:55.529Z,16.82
2022-09-20T13:16:24.829Z,16.78
2022-09-20T13:19:05.514Z,16.87
2022-09-20T13:21:36.347Z,16.89
2022-09-20T13:24:04.332Z,17.07
2022-09-20T13:26:39.931Z,17.26
2022-09-20T13:29:37.714Z,17.45
2022-09-20T13:32:22.640Z,17.45
2022-09-20T13:35:18.266Z,17.41
2022-09-20T13:37:56.879Z,17.54
2022-09-20T13:40:31.893Z,17.68
2022-09-20T13:43:22.033Z,17.48
2022-09-20T13:45:50.793Z,17.57
2022-09-20T13:48:17.254Z,17.56
2022-09-20T13:50:48.030Z,17.53
2022-09-20T13:53:39.460Z,17.47
2022-09-20T13:56:16.013Z,17.37
2022-09-20T13:58:42.575Z,17.39
2022-09-20T14:01:23.140Z,17.33
2022-09-20T14:03:49.894Z,17.34
2022-09-20T14:06:16.574Z,17.24
2022-09-20T14:08:48.073Z,17.25
2022-09-20T14:11:23.719Z,17.24
2022-09-20T14:13:54.103Z,17.25
2022-09-20T14:16:23.066Z,17.22
2022-09-20T14:18:50.146Z,17.28
2022-09-20T14:21:26.320Z,17.21
2022-09-20T14:24:02.058Z,17.27
2022-09-20T14:26:37.982Z,17.22
2022-09-20T14:29:40.009Z,17.46
2022-09-20T14:32:10.159Z,17.52
2022-09-20T14:34:41.232Z,17.52
2022-09-20T14:37:22.744Z,17.63
2022-09-20T14:39:54.028Z,17.89
2022-09-20T14:42:23.404Z,17.90
2022-09-20T14:44:52.035Z,17.94
2022-09-20T14:47:36.794Z,17.91
2022-09-20T14:50:04.528Z,17.64
2022-09-20T14:52:36.653Z,17.51
2022-09-20T14:55:16.154Z,17.57
2022-09-20T14:57:42.868Z,17.55
2022-09-20T15:00:15.162Z,17.63
2022-09-20T15:02:44.238Z,17.54
2022-09-20T15:05:25.982Z,17.55
2022-09-20T15:07:56.931Z,17.71
2022-09-20T15:10:23.773Z,17.33
2022-09-20T15:12:51.298Z,17.23
2022-09-20T15:15:18.908Z,17.27
2022-09-20T15:17:47.050Z,17.28
2022-09-20T15:20:23.977Z,17.17
2022-09-20T15:22:51.228Z,17.24
2022-09-20T15:25:21.174Z,17.19
2022-09-20T15:27:49.317Z,17.07
2022-09-20T15:30:17.756Z,17.35
2022-09-20T15:32:44.722Z,17.37
2022-09-20T15:35:12.002Z,17.36
2022-09-20T15:37:38.485Z,17.43
2022-09-20T15:40:06.708Z,17.31
2022-09-20T15:42:37.980Z,17.37
2022-09-20T15:45:09.443Z,17.61
2022-09-20T15:47:37.603Z,17.67
2022-09-20T15:50:08.284Z,17.63
2022-09-20T15:52:42.382Z,17.49
2022-09-20T15:55:09.335Z,17.61
2022-09-20T15:57:35.884Z,17.60
2022-09-20T16:00:03.171Z,17.65
2022-09-20T16:02:34.974Z,17.72
2022-09-20T16:05:01.976Z,17.86
2022-09-20T16:07:28.475Z,17.91
2022-09-20T16:09:55.907Z,18.08
2022-09-20T16:12:25.161Z,18.19
2022-09-20T16:14:51.649Z,18.20
2022-09-20T16:17:18.515Z,18.33
2022-09-20T16:19:48.561Z,18.43
2022-09-20T16:22:15.784Z,18.37
2022-09-20T16:24:42.382Z,18.35
2022-09-20T16:27:09.643Z,18.30
2022-09-20T16:29:36.157Z,18.31
2022-09-20T16:32:03.675Z,18.26
2022-09-20T16:34:35.192Z,18.23
2022-09-20T16:37:16.775Z,18.17
2022-09-20T16:39:44.220Z,18.01
2022-09-20T16:42:12.804Z,17.97
2022-09-20T16:44:42.555Z,17.92
2022-09-20T16:47:13.383Z,17.80
2022-09-20T16:49:39.922Z,17.83
2022-09-20T16:52:08.591Z,17.75
2022-09-20T16:54:35.495Z,17.60
2022-09-20T16:57:02.191Z,17.50
2022-09-20T16:59:28.962Z,17.42
2022-09-20T17:01:55.540Z,17.34
2022-09-20T17:04:22.092Z,17.32
2022-09-20T17:06:49.859Z,17.30
2022-09-20T17:09:16.684Z,17.27
2022-09-20T17:11:49.282Z,17.27
2022-09-20T17:14:18.425Z,17.22
2022-09-20T17:16:49.026Z,17.06
2022-09-20T17:19:18.805Z,17.03
2022-09-20T17:21:49.920Z,16.96
2022-09-20T17:24:19.208Z,16.88
2022-09-20T17:26:45.784Z,16.78
2022-09-20T17:29:16.048Z,16.72
2022-09-20T17:31:50.022Z,16.56
2022-09-20T17:34:21.383Z,16.57
2022-09-20T17:36:49.101Z,16.42
2022-09-20T17:39:16.211Z,16.39
2022-09-20T17:41:45.698Z,16.34
2022-09-20T17:44:12.381Z,16.35
2022-09-20T17:46:40.802Z,16.36
2022-09-20T17:49:12.840Z,16.29
2022-09-20T17:51:41.776Z,16.28
2022-09-20T17:54:08.911Z,16.27
2022-09-20T17:56:35.627Z,16.23
2022-09-20T17:59:03.716Z,16.17
2022-09-20T18:01:32.324Z,16.14
2022-09-20T18:04:00.547Z,16.07
2022-09-20T18:06:47.553Z,16.10
2022-09-20T18:09:16.023Z,16.00
2022-09-20T18:11:46.240Z,16.00
2022-09-20T18:14:13.369Z,15.92
2022-09-20T18:16:40.308Z,15.91
2022-09-20T18:19:08.416Z,15.78
2022-09-20T18:21:37.068Z,15.79
2022-09-20T18:24:08.502Z,15.72
2022-09-20T18:26:35.805Z,15.68
2022-09-20T18:29:09.377Z,15.60
2022-09-20T18:31:44.546Z,15.60
2022-09-20T18:34:15.444Z,15.60
2022-09-20T18:36:42.022Z,15.56
2022-09-20T18:39:08.598Z,15.53
2022-09-20T18:41:37.059Z,15.51
2022-09-20T18:44:07.008Z,15.50
2022-09-20T18:46:37.977Z,15.46
2022-09-20T18:49:08.202Z,15.43
2022-09-20T18:51:39.360Z,15.43
2022-09-20T18:54:09.828Z,15.42
2022-09-20T18:56:38.608Z,15.41
2022-09-20T18:59:22.447Z,15.39
2022-09-20T19:01:54.959Z,15.31
2022-09-20T19:04:33.775Z,15.29
2022-09-20T19:07:00.228Z,15.29
2022-09-20T19:09:39.178Z,15.24
2022-09-20T19:12:20.621Z,15.23
2022-09-20T19:15:13.892Z,15.23
2022-09-20T19:18:24.155Z,15.19
2022-09-20T19:21:28.359Z,15.14
2022-09-20T19:24:21.750Z,15.02
2022-09-20T19:26:48.435Z,14.99
2022-09-20T19:29:20.683Z,14.93
2022-09-20T19:31:49.389Z,14.82
2022-09-20T19:34:20.294Z,14.86
2022-09-20T19:37:18.481Z,14.91
2022-09-20T19:40:07.416Z,14.81
2022-09-20T19:42:57.120Z,14.86
2022-09-20T19:45:43.558Z,14.88
2022-09-20T19:48:19.556Z,14.68
2022-09-20T19:50:49.658Z,14.71
2022-09-20T19:53:18.556Z,14.70
2022-09-20T19:55:52.116Z,14.72
2022-09-20T19:58:19.277Z,14.68
2022-09-20T20:00:46.867Z,14.69
2022-09-20T20:03:15.179Z,14.60
2022-09-20T20:06:08.423Z,14.72
2022-09-20T20:08:50.527Z,14.67
2022-09-20T20:11:45.364Z,14.70
2022-09-20T20:14:23.049Z,14.63
2022-09-20T20:17:19.048Z,14.63
2022-09-20T20:20:19.559Z,14.68
2022-09-20T20:22:58.267Z,14.65
2022-09-20T20:25:55.484Z,14.64
2022-09-20T20:28:21.948Z,14.60
2022-09-20T20:30:48.481Z,14.57
2022-09-20T20:33:16.037Z,14.61
2022-09-20T20:35:42.543Z,14.56
2022-09-20T20:38:10.522Z,14.55
2022-09-20T20:40:37.785Z,14.57
2022-09-20T20:43:06.023Z,14.57
2022-09-20T20:45:32.523Z,14.52
2022-09-20T20:47:59.273Z,14.46
2022-09-20T20:50:27.907Z,14.38
2022-09-20T20:52:56.145Z,14.47
2022-09-20T20:55:25.342Z,14.29
2022-09-20T20:57:54.857Z,14.49
2022-09-20T21:00:21.319Z,14.47
2022-09-20T21:02:47.803Z,14.43
2022-09-20T21:05:15.367Z,14.40
2022-09-20T21:07:41.831Z,14.40
2022-09-20T21:10:09.222Z,14.38
2022-09-20T21:12:35.700Z,14.41
2022-09-20T21:15:02.165Z,14.42
2022-09-20T21:17:32.602Z,14.38
2022-09-20T21:20:02.076Z,14.35
2022-09-20T21:22:29.438Z,14.29
2022-09-20T21:24:55.910Z,14.29
2022-09-20T21:27:22.362Z,14.34
2022-09-20T21:29:48.823Z,14.31
2022-09-20T21:32:15.298Z,14.29
2022-09-20T21:34:41.876Z,14.24
2022-09-20T21:37:09.475Z,14.23
2022-09-20T21:39:35.936Z,14.21
2022-09-20T21:42:04.298Z,14.20
2022-09-20T21:44:31.076Z,14.12
2022-09-20T21:46:57.594Z,14.19
2022-09-20T21:49:24.175Z,14.13
2022-09-20T21:51:53.132Z,14.12
2022-09-20T21:54:19.773Z,14.11
2022-09-20T21:56:46.218Z,14.16
2022-09-20T21:59:12.733Z,14.09
2022-09-20T22:01:41.051Z,14.09
2022-09-20T22:04:09.931Z,14.12
2022-09-20T22:06:38.934Z,14.15
2022-09-20T22:09:13.640Z,14.12
2022-09-20T22:11:42.874Z,14.11
2022-09-20T22:14:10.338Z,14.06
2022-09-20T22:16:40.147Z,14.04
2022-09-20T22:19:08.560Z,13.99
2022-09-20T22:21:44.052Z,13.99
2022-09-20T22:24:12.097Z,13.98
2022-09-20T22:26:41.480Z,13.95
2022-09-20T22:29:08.803Z,13.88
2022-09-20T22:31:38.840Z,13.88
2022-09-20T22:34:07.189Z,13.84
2022-09-20T22:36:36.301Z,13.84
2022-09-20T22:39:04.731Z,13.85
2022-09-20T22:41:31.420Z,13.82
2022-09-20T22:43:58.019Z,13.77
2022-09-20T22:46:26.831Z,13.80
2022-09-20T22:48:53.701Z,13.75
2022-09-20T22:51:23.643Z,13.75
2022-09-20T22:53:52.129Z,13.76
2022-09-20T22:56:24.915Z,13.73
2022-09-20T22:58:54.051Z,13.75
2022-09-20T23:01:26.963Z,13.74
2022-09-20T23:03:59.047Z,13.67
2022-09-20T23:06:27.952Z,13.70
2022-09-20T23:08:57.461Z,13.62
2022-09-20T23:11:24.877Z,13.58
2022-09-20T23:13:59.302Z,13.59
2022-09-20T23:16:30.891Z,13.60
2022-09-20T23:18:59.391Z,13.51
2022-09-20T23:21:26.488Z,13.49
2022-09-20T23:23:55.037Z,13.48
2022-09-20T23:26:21.691Z,13.51
2022-09-20T23:28:53.920Z,13.51
2022-09-20T23:31:20.557Z,13.48
2022-09-20T23:33:52.387Z,13.46
2022-09-20T23:36:20.137Z,13.45
2022-09-20T23:38:47.427Z,13.45
2022-09-20T23:41:16.021Z,13.42
2022-09-20T23:43:43.324Z,13.41
2022-09-20T23:46:12.813Z,13.39
2022-09-20T23:48:41.801Z,13.28
2022-09-20T23:51:10.920Z,13.26
2022-09-20T23:53:37.788Z,13.14
2022-09-20T23:56:06.167Z,13.11
2022-09-20T23:58:35.846Z,13.04
